Glastonbury, Connecticut
Current Conditions -  °F | °C
As of 9:53 PM on Friday 19 Dec 2014 (Local Time) from KHFD Reporting Station
Overcast Overcast  
Wind Chill: 23°   Ceiling: 3200
Heat Index: 31°   Visibility: 10mi
Dew Point: 20°   Wind: 8mph
Humidity: 64%   Direction: 320°NW
Pressure: 30.14"   Gusts: NA
Location:  41.71°N, 72.61°W
Report Text: KHFD 200253Z 32007KT 250V340 10SM OVC032 M01/M07 A3014 RMK AO2 SLP206 T10061067 51010
Loading
Personal Weather Stations






























Interactive Weather Map New forecast layout! Learn more

10-Day Weather Forecast

Advertisements
Track Severe Weather on mobile